sensor_id;sensor_type;location;lat;lon;timestamp;P1;durP1;ratioP1;P2;durP2;ratioP2
17197;SDS011;8715;51.010;6.812;2024-02-28T00:00:41;682.47;;;648.50;;
17197;SDS011;8715;51.010;6.812;2024-02-28T00:03:26;685.65;;;651.90;;
17197;SDS011;8715;51.010;6.812;2024-02-28T00:06:11;692.17;;;658.55;;
17197;SDS011;8715;51.010;6.812;2024-02-28T00:08:56;685.70;;;652.65;;
17197;SDS011;8715;51.010;6.812;2024-02-28T00:11:43;674.78;;;641.60;;
17197;SDS011;8715;51.010;6.812;2024-02-28T00:14:29;682.42;;;648.30;;
17197;SDS011;8715;51.010;6.812;2024-02-28T00:17:14;688.85;;;655.33;;
17197;SDS011;8715;51.010;6.812;2024-02-28T00:20:00;674.35;;;641.50;;
17197;SDS011;8715;51.010;6.812;2024-02-28T00:22:45;682.25;;;650.25;;
17197;SDS011;8715;51.010;6.812;2024-02-28T00:25:30;679.60;;;647.30;;
17197;SDS011;8715;51.010;6.812;2024-02-28T00:28:17;683.65;;;651.08;;
17197;SDS011;8715;51.010;6.812;2024-02-28T00:31:03;674.55;;;642.30;;
17197;SDS011;8715;51.010;6.812;2024-02-28T00:33:48;676.33;;;643.60;;
17197;SDS011;8715;51.010;6.812;2024-02-28T00:36:33;670.72;;;638.88;;
17197;SDS011;8715;51.010;6.812;2024-02-28T00:39:18;682.38;;;648.78;;
17197;SDS011;8715;51.010;6.812;2024-02-28T00:42:03;669.35;;;635.63;;
17197;SDS011;8715;51.010;6.812;2024-02-28T00:44:49;671.13;;;639.38;;
17197;SDS011;8715;51.010;6.812;2024-02-28T00:47:34;681.25;;;648.83;;
17197;SDS011;8715;51.010;6.812;2024-02-28T00:50:19;680.72;;;647.33;;
17197;SDS011;8715;51.010;6.812;2024-02-28T00:53:04;672.25;;;639.53;;
17197;SDS011;8715;51.010;6.812;2024-02-28T00:55:49;677.33;;;643.88;;
17197;SDS011;8715;51.010;6.812;2024-02-28T00:58:35;681.67;;;648.20;;
17197;SDS011;8715;51.010;6.812;2024-02-28T01:01:23;670.95;;;637.85;;
17197;SDS011;8715;51.010;6.812;2024-02-28T01:04:08;667.80;;;634.65;;
17197;SDS011;8715;51.010;6.812;2024-02-28T01:06:53;682.35;;;646.97;;
17197;SDS011;8715;51.010;6.812;2024-02-28T01:09:38;668.97;;;636.40;;
17197;SDS011;8715;51.010;6.812;2024-02-28T01:12:23;678.53;;;645.15;;
17197;SDS011;8715;51.010;6.812;2024-02-28T01:15:08;674.42;;;641.85;;
17197;SDS011;8715;51.010;6.812;2024-02-28T01:17:55;679.33;;;646.78;;
17197;SDS011;8715;51.010;6.812;2024-02-28T01:20:40;686.92;;;653.13;;
17197;SDS011;8715;51.010;6.812;2024-02-28T01:23:25;665.40;;;632.67;;
17197;SDS011;8715;51.010;6.812;2024-02-28T01:26:10;672.20;;;638.70;;
17197;SDS011;8715;51.010;6.812;2024-02-28T01:28:56;668.28;;;636.20;;
17197;SDS011;8715;51.010;6.812;2024-02-28T01:31:41;679.13;;;645.13;;
17197;SDS011;8715;51.010;6.812;2024-02-28T01:34:28;676.08;;;641.15;;
17197;SDS011;8715;51.010;6.812;2024-02-28T01:37:12;659.55;;;626.13;;
17197;SDS011;8715;51.010;6.812;2024-02-28T01:39:58;691.55;;;655.05;;
17197;SDS011;8715;51.010;6.812;2024-02-28T01:42:43;668.28;;;634.65;;
17197;SDS011;8715;51.010;6.812;2024-02-28T01:45:28;666.97;;;632.92;;
17197;SDS011;8715;51.010;6.812;2024-02-28T01:48:13;673.03;;;639.60;;
17197;SDS011;8715;51.010;6.812;2024-02-28T01:51:00;670.38;;;636.47;;
17197;SDS011;8715;51.010;6.812;2024-02-28T01:53:45;674.88;;;641.72;;
17197;SDS011;8715;51.010;6.812;2024-02-28T01:56:30;661.05;;;628.38;;
17197;SDS011;8715;51.010;6.812;2024-02-28T01:59:15;674.38;;;641.45;;
17197;SDS011;8715;51.010;6.812;2024-02-28T02:02:02;659.60;;;627.65;;
17197;SDS011;8715;51.010;6.812;2024-02-28T02:04:48;663.90;;;632.50;;
17197;SDS011;8715;51.010;6.812;2024-02-28T02:07:38;669.88;;;636.33;;
17197;SDS011;8715;51.010;6.812;2024-02-28T02:10:23;664.33;;;632.30;;
17197;SDS011;8715;51.010;6.812;2024-02-28T02:13:08;678.40;;;645.78;;
17197;SDS011;8715;51.010;6.812;2024-02-28T02:15:53;664.70;;;631.90;;
17197;SDS011;8715;51.010;6.812;2024-02-28T02:18:38;672.03;;;636.92;;
17197;SDS011;8715;51.010;6.812;2024-02-28T02:21:24;676.65;;;641.78;;
17197;SDS011;8715;51.010;6.812;2024-02-28T02:24:10;681.42;;;648.20;;
17197;SDS011;8715;51.010;6.812;2024-02-28T02:26:57;674.78;;;641.15;;
17197;SDS011;8715;51.010;6.812;2024-02-28T02:29:42;670.35;;;637.33;;
17197;SDS011;8715;51.010;6.812;2024-02-28T02:32:27;668.60;;;635.50;;
17197;SDS011;8715;51.010;6.812;2024-02-28T02:35:13;674.40;;;640.90;;
17197;SDS011;8715;51.010;6.812;2024-02-28T02:37:58;682.72;;;648.78;;
17197;SDS011;8715;51.010;6.812;2024-02-28T02:40:47;675.38;;;641.83;;
17197;SDS011;8715;51.010;6.812;2024-02-28T02:46:17;679.15;;;645.75;;
17197;SDS011;8715;51.010;6.812;2024-02-28T02:49:02;670.60;;;637.17;;
17197;SDS011;8715;51.010;6.812;2024-02-28T02:51:47;681.13;;;646.38;;
17197;SDS011;8715;51.010;6.812;2024-02-28T02:54:33;696.10;;;661.17;;
17197;SDS011;8715;51.010;6.812;2024-02-28T02:57:19;709.08;;;673.13;;
17197;SDS011;8715;51.010;6.812;2024-02-28T03:00:07;698.55;;;663.33;;
17197;SDS011;8715;51.010;6.812;2024-02-28T03:02:52;691.10;;;656.75;;
17197;SDS011;8715;51.010;6.812;2024-02-28T03:05:38;683.50;;;647.83;;
17197;SDS011;8715;51.010;6.812;2024-02-28T03:08:23;691.35;;;656.75;;
17197;SDS011;8715;51.010;6.812;2024-02-28T03:11:08;697.22;;;661.97;;
17197;SDS011;8715;51.010;6.812;2024-02-28T03:13:54;697.70;;;662.65;;
17197;SDS011;8715;51.010;6.812;2024-02-28T03:16:40;705.35;;;669.72;;
17197;SDS011;8715;51.010;6.812;2024-02-28T03:19:26;717.33;;;680.80;;
17197;SDS011;8715;51.010;6.812;2024-02-28T03:22:11;711.80;;;676.05;;
17197;SDS011;8715;51.010;6.812;2024-02-28T03:24:59;713.78;;;677.83;;
17197;SDS011;8715;51.010;6.812;2024-02-28T03:27:44;710.83;;;674.78;;
17197;SDS011;8715;51.010;6.812;2024-02-28T03:30:30;707.97;;;671.03;;
17197;SDS011;8715;51.010;6.812;2024-02-28T03:33:15;712.33;;;675.03;;
17197;SDS011;8715;51.010;6.812;2024-02-28T03:36:01;712.30;;;674.72;;
17197;SDS011;8715;51.010;6.812;2024-02-28T03:38:46;707.97;;;669.75;;
17197;SDS011;8715;51.010;6.812;2024-02-28T03:41:31;709.80;;;671.85;;
17197;SDS011;8715;51.010;6.812;2024-02-28T03:44:16;712.40;;;674.20;;
17197;SDS011;8715;51.010;6.812;2024-02-28T03:47:02;728.50;;;689.65;;
17197;SDS011;8715;51.010;6.812;2024-02-28T03:49:48;713.80;;;675.83;;
17197;SDS011;8715;51.010;6.812;2024-02-28T03:52:32;723.42;;;684.63;;
17197;SDS011;8715;51.010;6.812;2024-02-28T03:55:18;714.65;;;677.20;;
17197;SDS011;8715;51.010;6.812;2024-02-28T03:58:03;723.70;;;683.97;;
17197;SDS011;8715;51.010;6.812;2024-02-28T04:00:50;723.88;;;684.95;;
17197;SDS011;8715;51.010;6.812;2024-02-28T04:03:37;726.42;;;686.28;;
17197;SDS011;8715;51.010;6.812;2024-02-28T04:06:22;723.47;;;685.03;;
17197;SDS011;8715;51.010;6.812;2024-02-28T04:09:07;734.03;;;694.05;;
17197;SDS011;8715;51.010;6.812;2024-02-28T04:11:52;736.25;;;693.92;;
17197;SDS011;8715;51.010;6.812;2024-02-28T04:14:37;748.90;;;707.65;;
17197;SDS011;8715;51.010;6.812;2024-02-28T04:17:22;731.97;;;691.88;;
17197;SDS011;8715;51.010;6.812;2024-02-28T04:20:09;739.47;;;698.85;;
17197;SDS011;8715;51.010;6.812;2024-02-28T04:22:54;735.25;;;694.20;;
17197;SDS011;8715;51.010;6.812;2024-02-28T04:25:39;741.10;;;700.42;;
17197;SDS011;8715;51.010;6.812;2024-02-28T04:28:24;744.80;;;703.90;;
17197;SDS011;8715;51.010;6.812;2024-02-28T04:31:10;746.22;;;706.13;;
17197;SDS011;8715;51.010;6.812;2024-02-28T04:33:54;745.95;;;704.50;;
17197;SDS011;8715;51.010;6.812;2024-02-28T04:36:41;739.05;;;696.97;;
17197;SDS011;8715;51.010;6.812;2024-02-28T04:39:26;745.88;;;703.47;;
17197;SDS011;8715;51.010;6.812;2024-02-28T04:42:12;741.47;;;702.70;;
17197;SDS011;8715;51.010;6.812;2024-02-28T04:44:57;736.95;;;697.80;;
17197;SDS011;8715;51.010;6.812;2024-02-28T04:47:42;757.03;;;714.85;;
17197;SDS011;8715;51.010;6.812;2024-02-28T04:50:27;752.25;;;710.83;;
17197;SDS011;8715;51.010;6.812;2024-02-28T04:53:13;750.75;;;709.92;;
17197;SDS011;8715;51.010;6.812;2024-02-28T04:55:59;756.88;;;715.17;;
17197;SDS011;8715;51.010;6.812;2024-02-28T04:58:44;748.08;;;707.67;;
17197;SDS011;8715;51.010;6.812;2024-02-28T05:01:29;751.92;;;710.55;;
17197;SDS011;8715;51.010;6.812;2024-02-28T05:04:15;751.63;;;709.85;;
17197;SDS011;8715;51.010;6.812;2024-02-28T05:07:00;746.30;;;705.25;;
17197;SDS011;8715;51.010;6.812;2024-02-28T05:09:46;754.50;;;712.25;;
17197;SDS011;8715;51.010;6.812;2024-02-28T05:12:31;758.80;;;716.05;;
17197;SDS011;8715;51.010;6.812;2024-02-28T05:15:16;747.28;;;706.53;;
17197;SDS011;8715;51.010;6.812;2024-02-28T05:18:03;755.30;;;712.13;;
17197;SDS011;8715;51.010;6.812;2024-02-28T05:20:48;753.28;;;712.40;;
17197;SDS011;8715;51.010;6.812;2024-02-28T05:23:33;747.22;;;706.95;;
17197;SDS011;8715;51.010;6.812;2024-02-28T05:26:20;745.50;;;706.17;;
17197;SDS011;8715;51.010;6.812;2024-02-28T05:29:05;741.67;;;701.85;;
17197;SDS011;8715;51.010;6.812;2024-02-28T05:31:50;738.20;;;698.78;;
17197;SDS011;8715;51.010;6.812;2024-02-28T05:34:35;746.92;;;706.95;;
17197;SDS011;8715;51.010;6.812;2024-02-28T05:37:20;744.80;;;704.42;;
17197;SDS011;8715;51.010;6.812;2024-02-28T05:40:06;733.53;;;695.42;;
17197;SDS011;8715;51.010;6.812;2024-02-28T05:42:53;730.33;;;692.65;;
17197;SDS011;8715;51.010;6.812;2024-02-28T05:45:38;731.40;;;692.22;;
17197;SDS011;8715;51.010;6.812;2024-02-28T05:48:23;735.60;;;696.65;;
17197;SDS011;8715;51.010;6.812;2024-02-28T05:51:08;727.55;;;689.92;;
17197;SDS011;8715;51.010;6.812;2024-02-28T05:53:53;730.70;;;692.10;;
17197;SDS011;8715;51.010;6.812;2024-02-28T05:56:38;737.47;;;698.40;;
17197;SDS011;8715;51.010;6.812;2024-02-28T05:59:24;727.70;;;689.15;;
17197;SDS011;8715;51.010;6.812;2024-02-28T06:02:10;735.20;;;696.42;;
17197;SDS011;8715;51.010;6.812;2024-02-28T06:04:55;727.38;;;687.90;;
17197;SDS011;8715;51.010;6.812;2024-02-28T06:07:40;731.15;;;691.22;;
17197;SDS011;8715;51.010;6.812;2024-02-28T06:10:25;731.03;;;691.15;;
17197;SDS011;8715;51.010;6.812;2024-02-28T06:13:10;736.35;;;696.92;;
17197;SDS011;8715;51.010;6.812;2024-02-28T06:15:57;736.00;;;697.35;;
17197;SDS011;8715;51.010;6.812;2024-02-28T06:18:42;741.00;;;700.17;;
17197;SDS011;8715;51.010;6.812;2024-02-28T06:21:27;751.40;;;710.65;;
17197;SDS011;8715;51.010;6.812;2024-02-28T06:24:13;736.25;;;696.22;;
17197;SDS011;8715;51.010;6.812;2024-02-28T06:26:58;730.20;;;691.15;;
17197;SDS011;8715;51.010;6.812;2024-02-28T06:29:43;731.80;;;692.95;;
17197;SDS011;8715;51.010;6.812;2024-02-28T06:32:29;733.10;;;694.85;;
17197;SDS011;8715;51.010;6.812;2024-02-28T06:35:14;742.45;;;702.63;;
17197;SDS011;8715;51.010;6.812;2024-02-28T06:38:00;743.45;;;703.33;;
17197;SDS011;8715;51.010;6.812;2024-02-28T06:40:45;738.15;;;697.03;;
17197;SDS011;8715;51.010;6.812;2024-02-28T06:43:32;737.80;;;698.20;;
17197;SDS011;8715;51.010;6.812;2024-02-28T06:46:18;744.05;;;703.38;;
17197;SDS011;8715;51.010;6.812;2024-02-28T06:49:04;740.13;;;699.65;;
17197;SDS011;8715;51.010;6.812;2024-02-28T06:51:49;740.08;;;697.70;;
17197;SDS011;8715;51.010;6.812;2024-02-28T06:54:34;737.10;;;696.72;;
17197;SDS011;8715;51.010;6.812;2024-02-28T06:57:19;741.55;;;701.13;;
17197;SDS011;8715;51.010;6.812;2024-02-28T07:00:05;745.00;;;704.10;;
17197;SDS011;8715;51.010;6.812;2024-02-28T07:02:51;738.70;;;698.30;;
17197;SDS011;8715;51.010;6.812;2024-02-28T07:05:38;744.58;;;702.67;;
17197;SDS011;8715;51.010;6.812;2024-02-28T07:08:23;749.33;;;708.25;;
17197;SDS011;8715;51.010;6.812;2024-02-28T07:11:12;759.20;;;716.80;;
17197;SDS011;8715;51.010;6.812;2024-02-28T07:13:57;756.72;;;715.90;;
17197;SDS011;8715;51.010;6.812;2024-02-28T07:16:45;742.88;;;703.70;;
17197;SDS011;8715;51.010;6.812;2024-02-28T07:19:30;756.08;;;715.20;;
17197;SDS011;8715;51.010;6.812;2024-02-28T07:22:17;753.53;;;713.42;;
17197;SDS011;8715;51.010;6.812;2024-02-28T07:25:02;763.53;;;722.08;;
17197;SDS011;8715;51.010;6.812;2024-02-28T07:27:48;770.38;;;728.63;;
17197;SDS011;8715;51.010;6.812;2024-02-28T07:30:33;752.97;;;712.45;;
17197;SDS011;8715;51.010;6.812;2024-02-28T07:33:19;756.92;;;716.25;;
17197;SDS011;8715;51.010;6.812;2024-02-28T07:36:04;759.42;;;718.88;;
17197;SDS011;8715;51.010;6.812;2024-02-28T07:38:50;763.35;;;722.85;;
17197;SDS011;8715;51.010;6.812;2024-02-28T07:41:36;761.15;;;721.17;;
17197;SDS011;8715;51.010;6.812;2024-02-28T07:44:21;759.10;;;718.60;;
17197;SDS011;8715;51.010;6.812;2024-02-28T07:47:06;773.60;;;733.08;;
17197;SDS011;8715;51.010;6.812;2024-02-28T07:49:51;750.22;;;709.83;;
17197;SDS011;8715;51.010;6.812;2024-02-28T07:52:37;762.15;;;721.13;;
17197;SDS011;8715;51.010;6.812;2024-02-28T07:55:24;779.30;;;737.50;;
17197;SDS011;8715;51.010;6.812;2024-02-28T07:58:09;775.70;;;733.42;;
17197;SDS011;8715;51.010;6.812;2024-02-28T08:00:54;774.20;;;732.97;;
17197;SDS011;8715;51.010;6.812;2024-02-28T08:03:39;771.78;;;730.90;;
17197;SDS011;8715;51.010;6.812;2024-02-28T08:06:24;768.08;;;726.42;;
17197;SDS011;8715;51.010;6.812;2024-02-28T08:09:09;780.10;;;737.60;;
17197;SDS011;8715;51.010;6.812;2024-02-28T08:11:57;778.78;;;737.35;;
17197;SDS011;8715;51.010;6.812;2024-02-28T08:14:42;786.25;;;743.63;;
17197;SDS011;8715;51.010;6.812;2024-02-28T08:17:28;792.58;;;749.03;;
17197;SDS011;8715;51.010;6.812;2024-02-28T08:20:13;773.63;;;731.42;;
17197;SDS011;8715;51.010;6.812;2024-02-28T08:22:58;785.90;;;743.92;;
17197;SDS011;8715;51.010;6.812;2024-02-28T08:25:43;780.20;;;737.60;;
17197;SDS011;8715;51.010;6.812;2024-02-28T08:28:30;786.60;;;744.22;;
17197;SDS011;8715;51.010;6.812;2024-02-28T08:31:15;790.63;;;748.55;;
17197;SDS011;8715;51.010;6.812;2024-02-28T08:34:00;794.38;;;750.85;;
17197;SDS011;8715;51.010;6.812;2024-02-28T08:36:48;798.33;;;754.13;;
17197;SDS011;8715;51.010;6.812;2024-02-28T08:39:33;799.80;;;755.63;;
17197;SDS011;8715;51.010;6.812;2024-02-28T08:42:18;785.05;;;741.33;;
17197;SDS011;8715;51.010;6.812;2024-02-28T08:45:06;792.22;;;748.13;;
17197;SDS011;8715;51.010;6.812;2024-02-28T08:47:51;796.50;;;751.85;;
17197;SDS011;8715;51.010;6.812;2024-02-28T08:50:36;803.58;;;759.10;;
17197;SDS011;8715;51.010;6.812;2024-02-28T08:53:21;808.30;;;763.05;;
17197;SDS011;8715;51.010;6.812;2024-02-28T08:56:06;804.17;;;758.25;;
17197;SDS011;8715;51.010;6.812;2024-02-28T08:58:51;798.83;;;753.92;;
17197;SDS011;8715;51.010;6.812;2024-02-28T09:01:38;806.72;;;761.17;;
17197;SDS011;8715;51.010;6.812;2024-02-28T09:04:25;800.05;;;755.42;;
17197;SDS011;8715;51.010;6.812;2024-02-28T09:07:10;809.35;;;762.88;;
17197;SDS011;8715;51.010;6.812;2024-02-28T09:09:55;811.55;;;764.78;;
17197;SDS011;8715;51.010;6.812;2024-02-28T09:12:40;804.92;;;758.30;;
17197;SDS011;8715;51.010;6.812;2024-02-28T09:15:25;814.67;;;767.58;;
17197;SDS011;8715;51.010;6.812;2024-02-28T09:18:12;816.25;;;768.88;;
17197;SDS011;8715;51.010;6.812;2024-02-28T09:20:57;807.45;;;761.15;;
17197;SDS011;8715;51.010;6.812;2024-02-28T09:23:42;817.00;;;769.67;;
17197;SDS011;8715;51.010;6.812;2024-02-28T09:26:27;806.08;;;760.05;;
17197;SDS011;8715;51.010;6.812;2024-02-28T09:29:12;809.38;;;762.33;;
17197;SDS011;8715;51.010;6.812;2024-02-28T09:31:57;805.60;;;759.38;;
17197;SDS011;8715;51.010;6.812;2024-02-28T09:34:44;808.90;;;762.58;;
17197;SDS011;8715;51.010;6.812;2024-02-28T09:37:29;819.95;;;772.80;;
17197;SDS011;8715;51.010;6.812;2024-02-28T09:40:15;818.03;;;770.78;;
17197;SDS011;8715;51.010;6.812;2024-02-28T09:43:01;821.92;;;774.50;;
17197;SDS011;8715;51.010;6.812;2024-02-28T09:45:46;815.92;;;768.70;;
17197;SDS011;8715;51.010;6.812;2024-02-28T09:48:32;814.05;;;766.55;;
17197;SDS011;8715;51.010;6.812;2024-02-28T09:51:18;823.95;;;775.25;;
17197;SDS011;8715;51.010;6.812;2024-02-28T09:54:07;824.92;;;777.20;;
17197;SDS011;8715;51.010;6.812;2024-02-28T09:56:52;828.42;;;780.45;;
17197;SDS011;8715;51.010;6.812;2024-02-28T09:59:38;821.85;;;774.13;;
17197;SDS011;8715;51.010;6.812;2024-02-28T10:02:24;824.75;;;776.75;;
17197;SDS011;8715;51.010;6.812;2024-02-28T10:05:10;824.20;;;777.03;;
17197;SDS011;8715;51.010;6.812;2024-02-28T10:07:57;823.22;;;775.40;;
17197;SDS011;8715;51.010;6.812;2024-02-28T10:10:45;815.85;;;769.25;;
17197;SDS011;8715;51.010;6.812;2024-02-28T10:13:31;806.40;;;760.90;;
17197;SDS011;8715;51.010;6.812;2024-02-28T10:16:17;826.50;;;778.65;;
17197;SDS011;8715;51.010;6.812;2024-02-28T10:19:01;826.97;;;779.40;;
17197;SDS011;8715;51.010;6.812;2024-02-28T10:21:46;823.78;;;776.03;;
17197;SDS011;8715;51.010;6.812;2024-02-28T10:24:33;818.00;;;771.28;;
17197;SDS011;8715;51.010;6.812;2024-02-28T10:27:18;824.88;;;776.90;;
17197;SDS011;8715;51.010;6.812;2024-02-28T10:30:04;834.83;;;786.83;;
17197;SDS011;8715;51.010;6.812;2024-02-28T10:32:49;830.50;;;781.17;;
17197;SDS011;8715;51.010;6.812;2024-02-28T10:35:35;819.80;;;771.80;;
17197;SDS011;8715;51.010;6.812;2024-02-28T10:38:20;825.38;;;777.28;;
17197;SDS011;8715;51.010;6.812;2024-02-28T10:41:06;822.33;;;774.80;;
17197;SDS011;8715;51.010;6.812;2024-02-28T10:43:52;820.78;;;772.55;;
17197;SDS011;8715;51.010;6.812;2024-02-28T10:46:38;832.25;;;783.40;;
17197;SDS011;8715;51.010;6.812;2024-02-28T10:49:23;823.00;;;774.33;;
17197;SDS011;8715;51.010;6.812;2024-02-28T10:52:08;830.95;;;781.78;;
17197;SDS011;8715;51.010;6.812;2024-02-28T10:54:57;827.88;;;779.53;;
17197;SDS011;8715;51.010;6.812;2024-02-28T10:57:45;827.05;;;778.42;;
17197;SDS011;8715;51.010;6.812;2024-02-28T11:00:32;834.13;;;784.33;;
17197;SDS011;8715;51.010;6.812;2024-02-28T11:03:18;823.47;;;775.33;;
17197;SDS011;8715;51.010;6.812;2024-02-28T11:06:04;824.20;;;776.10;;
17197;SDS011;8715;51.010;6.812;2024-02-28T11:08:49;819.35;;;771.53;;
17197;SDS011;8715;51.010;6.812;2024-02-28T11:11:36;823.83;;;775.05;;
17197;SDS011;8715;51.010;6.812;2024-02-28T11:14:25;832.10;;;783.22;;
17197;SDS011;8715;51.010;6.812;2024-02-28T11:17:10;826.58;;;778.25;;
17197;SDS011;8715;51.010;6.812;2024-02-28T11:19:55;830.05;;;781.83;;
17197;SDS011;8715;51.010;6.812;2024-02-28T11:22:40;834.30;;;784.85;;
17197;SDS011;8715;51.010;6.812;2024-02-28T11:25:26;831.75;;;782.88;;
17197;SDS011;8715;51.010;6.812;2024-02-28T11:28:11;837.38;;;788.08;;
17197;SDS011;8715;51.010;6.812;2024-02-28T11:30:57;833.15;;;783.88;;
17197;SDS011;8715;51.010;6.812;2024-02-28T11:33:42;836.28;;;786.65;;
17197;SDS011;8715;51.010;6.812;2024-02-28T11:36:27;839.08;;;789.28;;
17197;SDS011;8715;51.010;6.812;2024-02-28T11:39:13;837.40;;;787.08;;
17197;SDS011;8715;51.010;6.812;2024-02-28T11:42:07;825.53;;;776.95;;
17197;SDS011;8715;51.010;6.812;2024-02-28T11:44:53;833.50;;;784.47;;
17197;SDS011;8715;51.010;6.812;2024-02-28T11:47:41;838.45;;;788.28;;
17197;SDS011;8715;51.010;6.812;2024-02-28T11:50:26;840.47;;;790.65;;
17197;SDS011;8715;51.010;6.812;2024-02-28T11:53:14;833.45;;;783.72;;
17197;SDS011;8715;51.010;6.812;2024-02-28T11:55:59;836.35;;;786.92;;
17197;SDS011;8715;51.010;6.812;2024-02-28T11:58:49;834.55;;;784.50;;
17197;SDS011;8715;51.010;6.812;2024-02-28T12:01:34;835.05;;;784.90;;
17197;SDS011;8715;51.010;6.812;2024-02-28T12:04:21;840.20;;;789.45;;
17197;SDS011;8715;51.010;6.812;2024-02-28T12:09:53;838.15;;;788.60;;
17197;SDS011;8715;51.010;6.812;2024-02-28T12:12:38;844.05;;;793.30;;
17197;SDS011;8715;51.010;6.812;2024-02-28T12:15:24;842.30;;;791.28;;
17197;SDS011;8715;51.010;6.812;2024-02-28T12:18:10;848.90;;;796.95;;
17197;SDS011;8715;51.010;6.812;2024-02-28T12:20:57;841.75;;;791.20;;
17197;SDS011;8715;51.010;6.812;2024-02-28T12:23:42;842.28;;;791.65;;
17197;SDS011;8715;51.010;6.812;2024-02-28T12:26:27;845.42;;;794.10;;
17197;SDS011;8715;51.010;6.812;2024-02-28T12:29:12;852.15;;;800.35;;
17197;SDS011;8715;51.010;6.812;2024-02-28T12:31:58;854.25;;;801.80;;
17197;SDS011;8715;51.010;6.812;2024-02-28T12:34:43;853.45;;;801.10;;
17197;SDS011;8715;51.010;6.812;2024-02-28T12:37:29;845.00;;;793.65;;
17197;SDS011;8715;51.010;6.812;2024-02-28T12:40:16;850.13;;;796.92;;
17197;SDS011;8715;51.010;6.812;2024-02-28T12:43:01;851.38;;;799.10;;
17197;SDS011;8715;51.010;6.812;2024-02-28T12:45:47;845.10;;;793.67;;
17197;SDS011;8715;51.010;6.812;2024-02-28T12:48:36;849.00;;;798.08;;
17197;SDS011;8715;51.010;6.812;2024-02-28T12:51:35;845.53;;;793.75;;
17197;SDS011;8715;51.010;6.812;2024-02-28T12:54:22;846.22;;;794.75;;
17197;SDS011;8715;51.010;6.812;2024-02-28T12:57:07;851.50;;;799.22;;
17197;SDS011;8715;51.010;6.812;2024-02-28T12:59:52;849.97;;;799.13;;
17197;SDS011;8715;51.010;6.812;2024-02-28T13:02:37;849.28;;;797.88;;
17197;SDS011;8715;51.010;6.812;2024-02-28T13:05:22;847.22;;;795.65;;
17197;SDS011;8715;51.010;6.812;2024-02-28T13:08:08;850.13;;;798.50;;
17197;SDS011;8715;51.010;6.812;2024-02-28T13:10:54;850.75;;;798.42;;
17197;SDS011;8715;51.010;6.812;2024-02-28T13:13:39;853.60;;;801.25;;
17197;SDS011;8715;51.010;6.812;2024-02-28T13:16:24;853.80;;;801.75;;
17197;SDS011;8715;51.010;6.812;2024-02-28T13:19:09;857.08;;;804.78;;
17197;SDS011;8715;51.010;6.812;2024-02-28T13:21:54;855.88;;;803.38;;
17197;SDS011;8715;51.010;6.812;2024-02-28T13:24:39;853.70;;;801.90;;
17197;SDS011;8715;51.010;6.812;2024-02-28T13:27:26;850.20;;;798.00;;
17197;SDS011;8715;51.010;6.812;2024-02-28T13:30:12;852.25;;;800.20;;
17197;SDS011;8715;51.010;6.812;2024-02-28T13:32:57;849.50;;;798.10;;
17197;SDS011;8715;51.010;6.812;2024-02-28T13:35:42;854.28;;;802.42;;
17197;SDS011;8715;51.010;6.812;2024-02-28T13:38:27;858.15;;;805.63;;
17197;SDS011;8715;51.010;6.812;2024-02-28T13:41:13;858.47;;;805.53;;
17197;SDS011;8715;51.010;6.812;2024-02-28T13:44:01;859.88;;;807.35;;
17197;SDS011;8715;51.010;6.812;2024-02-28T13:46:46;855.45;;;802.88;;
17197;SDS011;8715;51.010;6.812;2024-02-28T13:49:32;860.92;;;808.33;;
17197;SDS011;8715;51.010;6.812;2024-02-28T13:52:17;856.53;;;804.58;;
17197;SDS011;8715;51.010;6.812;2024-02-28T13:55:02;855.00;;;802.17;;
17197;SDS011;8715;51.010;6.812;2024-02-28T13:57:48;854.47;;;802.35;;
17197;SDS011;8715;51.010;6.812;2024-02-28T14:00:34;852.60;;;800.67;;
17197;SDS011;8715;51.010;6.812;2024-02-28T14:03:19;861.20;;;808.22;;
17197;SDS011;8715;51.010;6.812;2024-02-28T14:06:04;859.88;;;806.92;;
17197;SDS011;8715;51.010;6.812;2024-02-28T14:08:50;850.83;;;798.38;;
17197;SDS011;8715;51.010;6.812;2024-02-28T14:11:37;853.17;;;801.35;;
17197;SDS011;8715;51.010;6.812;2024-02-28T14:14:22;849.40;;;797.33;;
17197;SDS011;8715;51.010;6.812;2024-02-28T14:17:09;850.35;;;798.33;;
17197;SDS011;8715;51.010;6.812;2024-02-28T14:19:53;858.95;;;806.20;;
17197;SDS011;8715;51.010;6.812;2024-02-28T14:22:38;862.20;;;809.75;;
17197;SDS011;8715;51.010;6.812;2024-02-28T14:25:25;856.58;;;803.97;;
17197;SDS011;8715;51.010;6.812;2024-02-28T14:28:12;850.15;;;797.88;;
17197;SDS011;8715;51.010;6.812;2024-02-28T14:30:57;849.67;;;798.53;;
17197;SDS011;8715;51.010;6.812;2024-02-28T14:33:44;860.80;;;808.17;;
17197;SDS011;8715;51.010;6.812;2024-02-28T14:36:29;858.53;;;805.65;;
17197;SDS011;8715;51.010;6.812;2024-02-28T14:39:14;861.15;;;807.65;;
17197;SDS011;8715;51.010;6.812;2024-02-28T14:42:00;861.47;;;807.85;;
17197;SDS011;8715;51.010;6.812;2024-02-28T14:44:45;860.17;;;807.03;;
17197;SDS011;8715;51.010;6.812;2024-02-28T14:47:30;858.95;;;806.15;;
17197;SDS011;8715;51.010;6.812;2024-02-28T14:50:16;861.53;;;808.30;;
17197;SDS011;8715;51.010;6.812;2024-02-28T14:53:02;858.38;;;805.60;;
17197;SDS011;8715;51.010;6.812;2024-02-28T14:55:47;864.97;;;811.53;;
17197;SDS011;8715;51.010;6.812;2024-02-28T14:58:32;861.13;;;807.95;;
17197;SDS011;8715;51.010;6.812;2024-02-28T15:01:17;858.97;;;806.28;;
17197;SDS011;8715;51.010;6.812;2024-02-28T15:04:02;865.53;;;811.83;;
17197;SDS011;8715;51.010;6.812;2024-02-28T15:06:50;857.75;;;804.88;;
17197;SDS011;8715;51.010;6.812;2024-02-28T15:09:35;860.92;;;807.50;;
17197;SDS011;8715;51.010;6.812;2024-02-28T15:12:21;859.08;;;805.97;;
17197;SDS011;8715;51.010;6.812;2024-02-28T15:15:06;866.30;;;813.05;;
17197;SDS011;8715;51.010;6.812;2024-02-28T15:17:51;870.10;;;816.42;;
17197;SDS011;8715;51.010;6.812;2024-02-28T15:20:36;858.60;;;805.20;;
17197;SDS011;8715;51.010;6.812;2024-02-28T15:23:23;859.78;;;806.03;;
17197;SDS011;8715;51.010;6.812;2024-02-28T15:26:08;867.10;;;813.20;;
17197;SDS011;8715;51.010;6.812;2024-02-28T15:28:53;869.05;;;815.33;;
17197;SDS011;8715;51.010;6.812;2024-02-28T15:31:38;861.38;;;807.67;;
17197;SDS011;8715;51.010;6.812;2024-02-28T15:34:23;861.63;;;807.83;;
17197;SDS011;8715;51.010;6.812;2024-02-28T15:37:08;857.28;;;803.92;;
17197;SDS011;8715;51.010;6.812;2024-02-28T15:39:55;864.28;;;810.15;;
17197;SDS011;8715;51.010;6.812;2024-02-28T15:42:40;865.38;;;811.53;;
17197;SDS011;8715;51.010;6.812;2024-02-28T15:45:25;859.05;;;805.72;;
17197;SDS011;8715;51.010;6.812;2024-02-28T15:48:11;865.72;;;812.10;;
17197;SDS011;8715;51.010;6.812;2024-02-28T15:50:55;863.47;;;810.05;;
17197;SDS011;8715;51.010;6.812;2024-02-28T15:53:41;866.03;;;812.08;;
17197;SDS011;8715;51.010;6.812;2024-02-28T15:56:27;854.55;;;802.30;;
17197;SDS011;8715;51.010;6.812;2024-02-28T15:59:13;854.80;;;802.40;;